sensor_id;sensor_type;location;lat;lon;timestamp;temperature;humidity
6518;DHT22;3292;48.944;9.240;2023-11-22T00:01:52;6.20;99.90
6518;DHT22;3292;48.944;9.240;2023-11-22T00:04:19;6.10;99.90
6518;DHT22;3292;48.944;9.240;2023-11-22T00:06:45;6.10;99.90
6518;DHT22;3292;48.944;9.240;2023-11-22T00:09:13;6.00;99.90
6518;DHT22;3292;48.944;9.240;2023-11-22T00:11:40;6.00;99.90
6518;DHT22;3292;48.944;9.240;2023-11-22T00:14:06;6.00;99.90
6518;DHT22;3292;48.944;9.240;2023-11-22T00:16:33;6.00;99.90
6518;DHT22;3292;48.944;9.240;2023-11-22T00:19:04;5.90;99.90
6518;DHT22;3292;48.944;9.240;2023-11-22T00:21:31;5.80;99.90
6518;DHT22;3292;48.944;9.240;2023-11-22T00:23:58;5.80;99.90
6518;DHT22;3292;48.944;9.240;2023-11-22T00:26:25;5.80;99.90
6518;DHT22;3292;48.944;9.240;2023-11-22T00:28:52;5.70;99.90
6518;DHT22;3292;48.944;9.240;2023-11-22T00:31:19;5.70;99.90
6518;DHT22;3292;48.944;9.240;2023-11-22T00:33:46;5.60;99.90
6518;DHT22;3292;48.944;9.240;2023-11-22T00:36:14;5.50;99.90
6518;DHT22;3292;48.944;9.240;2023-11-22T00:38:42;5.50;99.90
6518;DHT22;3292;48.944;9.240;2023-11-22T00:41:09;5.50;99.90
6518;DHT22;3292;48.944;9.240;2023-11-22T00:43:36;5.40;99.90
6518;DHT22;3292;48.944;9.240;2023-11-22T00:46:04;5.40;99.90
6518;DHT22;3292;48.944;9.240;2023-11-22T00:48:31;5.40;99.90
6518;DHT22;3292;48.944;9.240;2023-11-22T00:50:58;5.40;99.90
6518;DHT22;3292;48.944;9.240;2023-11-22T00:53:26;5.40;99.90
6518;DHT22;3292;48.944;9.240;2023-11-22T00:55:53;5.40;99.90
6518;DHT22;3292;48.944;9.240;2023-11-22T00:58:20;5.40;99.90
6518;DHT22;3292;48.944;9.240;2023-11-22T01:00:46;5.40;99.90
6518;DHT22;3292;48.944;9.240;2023-11-22T01:03:13;5.40;99.90
6518;DHT22;3292;48.944;9.240;2023-11-22T01:05:40;5.40;99.90
6518;DHT22;3292;48.944;9.240;2023-11-22T01:08:08;5.40;99.90
6518;DHT22;3292;48.944;9.240;2023-11-22T01:10:36;5.30;99.90
6518;DHT22;3292;48.944;9.240;2023-11-22T01:13:03;5.30;99.90
6518;DHT22;3292;48.944;9.240;2023-11-22T01:15:30;5.20;99.90
6518;DHT22;3292;48.944;9.240;2023-11-22T01:17:57;5.20;99.90
6518;DHT22;3292;48.944;9.240;2023-11-22T01:20:24;5.10;99.90
6518;DHT22;3292;48.944;9.240;2023-11-22T01:22:51;5.10;99.90
6518;DHT22;3292;48.944;9.240;2023-11-22T01:25:18;5.10;99.90
6518;DHT22;3292;48.944;9.240;2023-11-22T01:27:46;5.10;99.90
6518;DHT22;3292;48.944;9.240;2023-11-22T01:30:13;5.00;99.90
6518;DHT22;3292;48.944;9.240;2023-11-22T01:32:40;4.90;99.90
6518;DHT22;3292;48.944;9.240;2023-11-22T01:35:07;4.90;99.90
6518;DHT22;3292;48.944;9.240;2023-11-22T01:37:34;4.90;99.90
6518;DHT22;3292;48.944;9.240;2023-11-22T01:40:02;5.00;99.90
6518;DHT22;3292;48.944;9.240;2023-11-22T01:42:29;4.90;99.90
6518;DHT22;3292;48.944;9.240;2023-11-22T01:44:57;5.00;99.90
6518;DHT22;3292;48.944;9.240;2023-11-22T01:47:24;4.90;99.90
6518;DHT22;3292;48.944;9.240;2023-11-22T01:49:52;4.90;99.90
6518;DHT22;3292;48.944;9.240;2023-11-22T01:52:19;4.80;99.90
6518;DHT22;3292;48.944;9.240;2023-11-22T01:54:46;4.80;99.90
6518;DHT22;3292;48.944;9.240;2023-11-22T01:57:14;4.80;99.90
6518;DHT22;3292;48.944;9.240;2023-11-22T01:59:42;4.70;99.90
6518;DHT22;3292;48.944;9.240;2023-11-22T02:02:11;4.70;99.90
6518;DHT22;3292;48.944;9.240;2023-11-22T02:04:38;4.70;99.90
6518;DHT22;3292;48.944;9.240;2023-11-22T02:07:05;4.70;99.90
6518;DHT22;3292;48.944;9.240;2023-11-22T02:09:31;4.60;99.90
6518;DHT22;3292;48.944;9.240;2023-11-22T02:11:58;4.60;99.90
6518;DHT22;3292;48.944;9.240;2023-11-22T02:14:25;4.50;99.90
6518;DHT22;3292;48.944;9.240;2023-11-22T02:16:52;4.50;99.90
6518;DHT22;3292;48.944;9.240;2023-11-22T02:19:21;4.50;99.90
6518;DHT22;3292;48.944;9.240;2023-11-22T02:21:48;4.50;99.90
6518;DHT22;3292;48.944;9.240;2023-11-22T02:24:16;4.50;99.90
6518;DHT22;3292;48.944;9.240;2023-11-22T02:26:46;4.40;99.90
6518;DHT22;3292;48.944;9.240;2023-11-22T02:29:13;4.40;99.90
6518;DHT22;3292;48.944;9.240;2023-11-22T02:31:41;4.40;99.90
6518;DHT22;3292;48.944;9.240;2023-11-22T02:34:09;4.30;99.90
6518;DHT22;3292;48.944;9.240;2023-11-22T02:36:36;4.40;99.90
6518;DHT22;3292;48.944;9.240;2023-11-22T02:39:03;4.40;99.90
6518;DHT22;3292;48.944;9.240;2023-11-22T02:41:33;4.40;99.90
6518;DHT22;3292;48.944;9.240;2023-11-22T02:44:00;4.40;99.90
6518;DHT22;3292;48.944;9.240;2023-11-22T02:46:27;4.40;99.90
6518;DHT22;3292;48.944;9.240;2023-11-22T02:48:54;4.40;99.90
6518;DHT22;3292;48.944;9.240;2023-11-22T02:51:21;4.40;99.90
6518;DHT22;3292;48.944;9.240;2023-11-22T02:53:48;4.40;99.90
6518;DHT22;3292;48.944;9.240;2023-11-22T02:56:15;4.40;99.90
6518;DHT22;3292;48.944;9.240;2023-11-22T02:58:43;4.30;99.90
6518;DHT22;3292;48.944;9.240;2023-11-22T03:01:11;4.30;99.90
6518;DHT22;3292;48.944;9.240;2023-11-22T03:03:38;4.30;99.90
6518;DHT22;3292;48.944;9.240;2023-11-22T03:06:05;4.30;99.90
6518;DHT22;3292;48.944;9.240;2023-11-22T03:08:32;4.30;99.90
6518;DHT22;3292;48.944;9.240;2023-11-22T03:10:59;4.30;99.90
6518;DHT22;3292;48.944;9.240;2023-11-22T03:13:27;4.30;99.90
6518;DHT22;3292;48.944;9.240;2023-11-22T03:15:55;4.30;99.90
6518;DHT22;3292;48.944;9.240;2023-11-22T03:18:22;4.30;99.90
6518;DHT22;3292;48.944;9.240;2023-11-22T03:20:49;4.30;99.90
6518;DHT22;3292;48.944;9.240;2023-11-22T03:23:19;4.30;99.90
6518;DHT22;3292;48.944;9.240;2023-11-22T03:25:47;4.30;99.90
6518;DHT22;3292;48.944;9.240;2023-11-22T03:28:14;4.20;99.90
6518;DHT22;3292;48.944;9.240;2023-11-22T03:30:41;4.30;99.90
6518;DHT22;3292;48.944;9.240;2023-11-22T03:33:09;4.20;99.90
6518;DHT22;3292;48.944;9.240;2023-11-22T03:35:36;4.10;99.90
6518;DHT22;3292;48.944;9.240;2023-11-22T03:38:02;4.20;99.90
6518;DHT22;3292;48.944;9.240;2023-11-22T03:40:29;4.20;99.90
6518;DHT22;3292;48.944;9.240;2023-11-22T03:42:56;4.20;99.90
6518;DHT22;3292;48.944;9.240;2023-11-22T03:45:23;4.20;99.90
6518;DHT22;3292;48.944;9.240;2023-11-22T03:47:49;4.20;99.90
6518;DHT22;3292;48.944;9.240;2023-11-22T03:50:18;4.10;99.90
6518;DHT22;3292;48.944;9.240;2023-11-22T03:52:44;4.10;99.90
6518;DHT22;3292;48.944;9.240;2023-11-22T03:55:12;4.10;99.90
6518;DHT22;3292;48.944;9.240;2023-11-22T03:57:39;4.10;99.90
6518;DHT22;3292;48.944;9.240;2023-11-22T04:00:07;4.10;99.90
6518;DHT22;3292;48.944;9.240;2023-11-22T04:02:35;4.00;99.90
6518;DHT22;3292;48.944;9.240;2023-11-22T04:05:02;4.10;99.90
6518;DHT22;3292;48.944;9.240;2023-11-22T04:07:30;4.00;99.90
6518;DHT22;3292;48.944;9.240;2023-11-22T04:09:57;4.10;99.90
6518;DHT22;3292;48.944;9.240;2023-11-22T04:12:24;4.10;99.90
6518;DHT22;3292;48.944;9.240;2023-11-22T04:14:52;4.10;99.90
6518;DHT22;3292;48.944;9.240;2023-11-22T04:17:18;4.10;99.90
6518;DHT22;3292;48.944;9.240;2023-11-22T04:19:45;4.10;99.90
6518;DHT22;3292;48.944;9.240;2023-11-22T04:22:12;4.10;99.90
6518;DHT22;3292;48.944;9.240;2023-11-22T04:24:40;4.00;99.90
6518;DHT22;3292;48.944;9.240;2023-11-22T04:27:08;4.00;99.90
6518;DHT22;3292;48.944;9.240;2023-11-22T04:29:35;4.00;99.90
6518;DHT22;3292;48.944;9.240;2023-11-22T04:32:02;4.00;99.90
6518;DHT22;3292;48.944;9.240;2023-11-22T04:34:29;3.90;99.90
6518;DHT22;3292;48.944;9.240;2023-11-22T04:36:55;3.90;99.90
6518;DHT22;3292;48.944;9.240;2023-11-22T04:39:23;3.90;99.90
6518;DHT22;3292;48.944;9.240;2023-11-22T04:41:51;3.90;99.90
6518;DHT22;3292;48.944;9.240;2023-11-22T04:44:17;3.90;99.90
6518;DHT22;3292;48.944;9.240;2023-11-22T04:46:44;3.90;99.90
6518;DHT22;3292;48.944;9.240;2023-11-22T04:49:11;3.90;99.90
6518;DHT22;3292;48.944;9.240;2023-11-22T04:51:39;3.90;99.90
6518;DHT22;3292;48.944;9.240;2023-11-22T04:54:06;3.80;99.90
6518;DHT22;3292;48.944;9.240;2023-11-22T04:56:32;3.80;99.90
6518;DHT22;3292;48.944;9.240;2023-11-22T04:59:00;3.80;99.90
6518;DHT22;3292;48.944;9.240;2023-11-22T05:01:31;3.80;99.90
6518;DHT22;3292;48.944;9.240;2023-11-22T05:03:58;3.80;99.90
6518;DHT22;3292;48.944;9.240;2023-11-22T05:06:25;3.80;99.90
6518;DHT22;3292;48.944;9.240;2023-11-22T05:08:52;3.80;99.90
6518;DHT22;3292;48.944;9.240;2023-11-22T05:11:20;3.80;99.90
6518;DHT22;3292;48.944;9.240;2023-11-22T05:13:47;3.80;99.90
6518;DHT22;3292;48.944;9.240;2023-11-22T05:16:17;3.80;99.90
6518;DHT22;3292;48.944;9.240;2023-11-22T05:18:43;3.80;99.90
6518;DHT22;3292;48.944;9.240;2023-11-22T05:21:10;3.80;99.90
6518;DHT22;3292;48.944;9.240;2023-11-22T05:23:37;3.80;99.90
6518;DHT22;3292;48.944;9.240;2023-11-22T05:26:04;3.80;99.90
6518;DHT22;3292;48.944;9.240;2023-11-22T05:28:31;3.80;99.90
6518;DHT22;3292;48.944;9.240;2023-11-22T05:30:58;3.80;99.90
6518;DHT22;3292;48.944;9.240;2023-11-22T05:33:27;3.80;99.90
6518;DHT22;3292;48.944;9.240;2023-11-22T05:35:53;3.70;99.90
6518;DHT22;3292;48.944;9.240;2023-11-22T05:38:20;3.70;99.90
6518;DHT22;3292;48.944;9.240;2023-11-22T05:40:47;3.60;99.90
6518;DHT22;3292;48.944;9.240;2023-11-22T05:43:14;3.60;99.90
6518;DHT22;3292;48.944;9.240;2023-11-22T05:45:41;3.60;99.90
6518;DHT22;3292;48.944;9.240;2023-11-22T05:48:07;3.50;99.90
6518;DHT22;3292;48.944;9.240;2023-11-22T05:50:35;3.40;99.90
6518;DHT22;3292;48.944;9.240;2023-11-22T05:53:02;3.50;99.90
6518;DHT22;3292;48.944;9.240;2023-11-22T05:55:29;3.50;99.90
6518;DHT22;3292;48.944;9.240;2023-11-22T05:57:56;3.50;99.90
6518;DHT22;3292;48.944;9.240;2023-11-22T06:00:22;3.40;99.90
6518;DHT22;3292;48.944;9.240;2023-11-22T06:02:49;3.50;99.90
6518;DHT22;3292;48.944;9.240;2023-11-22T06:05:17;3.50;99.90
6518;DHT22;3292;48.944;9.240;2023-11-22T06:07:45;3.50;99.90
6518;DHT22;3292;48.944;9.240;2023-11-22T06:10:13;3.50;99.90
6518;DHT22;3292;48.944;9.240;2023-11-22T06:12:41;3.50;99.90
6518;DHT22;3292;48.944;9.240;2023-11-22T06:15:09;3.50;99.90
6518;DHT22;3292;48.944;9.240;2023-11-22T06:17:36;3.50;99.90
6518;DHT22;3292;48.944;9.240;2023-11-22T06:20:04;3.50;99.90
6518;DHT22;3292;48.944;9.240;2023-11-22T06:22:32;3.50;99.90
6518;DHT22;3292;48.944;9.240;2023-11-22T06:25:00;3.50;99.90
6518;DHT22;3292;48.944;9.240;2023-11-22T06:27:27;3.40;99.90
6518;DHT22;3292;48.944;9.240;2023-11-22T06:29:53;3.50;99.90
6518;DHT22;3292;48.944;9.240;2023-11-22T06:32:20;3.40;99.90
6518;DHT22;3292;48.944;9.240;2023-11-22T06:34:47;3.30;99.90
6518;DHT22;3292;48.944;9.240;2023-11-22T06:37:14;3.20;99.90
6518;DHT22;3292;48.944;9.240;2023-11-22T06:39:41;3.20;99.90
6518;DHT22;3292;48.944;9.240;2023-11-22T06:42:09;3.20;99.90
6518;DHT22;3292;48.944;9.240;2023-11-22T06:44:36;3.30;99.90
6518;DHT22;3292;48.944;9.240;2023-11-22T06:47:03;3.40;99.90
6518;DHT22;3292;48.944;9.240;2023-11-22T06:49:29;3.30;99.90
6518;DHT22;3292;48.944;9.240;2023-11-22T06:51:56;3.30;99.90
6518;DHT22;3292;48.944;9.240;2023-11-22T06:54:23;3.30;99.90
6518;DHT22;3292;48.944;9.240;2023-11-22T06:56:50;3.30;99.90
6518;DHT22;3292;48.944;9.240;2023-11-22T06:59:18;3.30;99.90
6518;DHT22;3292;48.944;9.240;2023-11-22T07:01:45;3.20;99.90
6518;DHT22;3292;48.944;9.240;2023-11-22T07:04:12;3.30;99.90
6518;DHT22;3292;48.944;9.240;2023-11-22T07:06:38;3.30;99.90
6518;DHT22;3292;48.944;9.240;2023-11-22T07:09:06;3.30;99.90
6518;DHT22;3292;48.944;9.240;2023-11-22T07:11:35;3.30;99.90
6518;DHT22;3292;48.944;9.240;2023-11-22T07:14:02;3.20;99.90
6518;DHT22;3292;48.944;9.240;2023-11-22T07:16:31;3.20;99.90
6518;DHT22;3292;48.944;9.240;2023-11-22T07:18:59;3.10;99.90
6518;DHT22;3292;48.944;9.240;2023-11-22T07:21:27;3.10;99.90
6518;DHT22;3292;48.944;9.240;2023-11-22T07:23:55;3.20;99.90
6518;DHT22;3292;48.944;9.240;2023-11-22T07:26:22;3.10;99.90
6518;DHT22;3292;48.944;9.240;2023-11-22T07:28:49;3.10;99.90
6518;DHT22;3292;48.944;9.240;2023-11-22T07:31:17;3.10;99.90
6518;DHT22;3292;48.944;9.240;2023-11-22T07:33:46;3.10;99.90
6518;DHT22;3292;48.944;9.240;2023-11-22T07:36:12;3.10;99.90
6518;DHT22;3292;48.944;9.240;2023-11-22T07:38:40;3.10;99.90
6518;DHT22;3292;48.944;9.240;2023-11-22T07:41:08;3.00;99.90
6518;DHT22;3292;48.944;9.240;2023-11-22T07:43:36;3.00;99.90
6518;DHT22;3292;48.944;9.240;2023-11-22T07:46:05;2.90;99.90
6518;DHT22;3292;48.944;9.240;2023-11-22T07:48:34;2.80;99.90
6518;DHT22;3292;48.944;9.240;2023-11-22T07:51:04;2.80;99.90
6518;DHT22;3292;48.944;9.240;2023-11-22T07:53:32;2.70;99.90
6518;DHT22;3292;48.944;9.240;2023-11-22T07:56:00;2.70;99.90
6518;DHT22;3292;48.944;9.240;2023-11-22T07:58:29;2.70;99.90
6518;DHT22;3292;48.944;9.240;2023-11-22T08:00:56;2.70;99.90
6518;DHT22;3292;48.944;9.240;2023-11-22T08:03:23;2.60;99.90
6518;DHT22;3292;48.944;9.240;2023-11-22T08:05:50;2.60;99.90
6518;DHT22;3292;48.944;9.240;2023-11-22T08:08:21;2.60;99.90
6518;DHT22;3292;48.944;9.240;2023-11-22T08:10:48;2.60;99.90
6518;DHT22;3292;48.944;9.240;2023-11-22T08:13:17;2.50;99.90
6518;DHT22;3292;48.944;9.240;2023-11-22T08:15:45;2.50;99.90
6518;DHT22;3292;48.944;9.240;2023-11-22T08:18:12;2.40;99.90
6518;DHT22;3292;48.944;9.240;2023-11-22T08:20:39;2.50;99.90
6518;DHT22;3292;48.944;9.240;2023-11-22T08:23:06;2.50;99.90
6518;DHT22;3292;48.944;9.240;2023-11-22T08:25:35;2.50;99.90
6518;DHT22;3292;48.944;9.240;2023-11-22T08:28:03;2.50;99.90
6518;DHT22;3292;48.944;9.240;2023-11-22T08:30:33;2.50;99.90
6518;DHT22;3292;48.944;9.240;2023-11-22T08:33:01;2.50;99.90
6518;DHT22;3292;48.944;9.240;2023-11-22T08:35:28;2.50;99.90
6518;DHT22;3292;48.944;9.240;2023-11-22T08:37:55;2.50;99.90
6518;DHT22;3292;48.944;9.240;2023-11-22T08:40:23;2.50;99.90
6518;DHT22;3292;48.944;9.240;2023-11-22T08:42:52;2.50;99.90
6518;DHT22;3292;48.944;9.240;2023-11-22T08:45:19;2.50;99.90
6518;DHT22;3292;48.944;9.240;2023-11-22T08:47:46;2.50;99.90
6518;DHT22;3292;48.944;9.240;2023-11-22T08:50:13;2.50;99.90
6518;DHT22;3292;48.944;9.240;2023-11-22T08:52:41;2.60;99.90
6518;DHT22;3292;48.944;9.240;2023-11-22T08:55:10;2.70;99.90
6518;DHT22;3292;48.944;9.240;2023-11-22T08:57:38;2.60;99.90
6518;DHT22;3292;48.944;9.240;2023-11-22T09:00:08;2.60;99.90
6518;DHT22;3292;48.944;9.240;2023-11-22T09:02:36;2.60;99.90
6518;DHT22;3292;48.944;9.240;2023-11-22T09:05:04;2.70;99.90
6518;DHT22;3292;48.944;9.240;2023-11-22T09:07:33;2.70;99.90
6518;DHT22;3292;48.944;9.240;2023-11-22T09:10:01;2.80;99.90
6518;DHT22;3292;48.944;9.240;2023-11-22T09:12:35;2.90;99.90
6518;DHT22;3292;48.944;9.240;2023-11-22T09:15:02;2.80;99.90
6518;DHT22;3292;48.944;9.240;2023-11-22T09:17:30;2.80;99.90
6518;DHT22;3292;48.944;9.240;2023-11-22T09:19:57;2.90;99.90
6518;DHT22;3292;48.944;9.240;2023-11-22T09:22:24;2.90;99.90
6518;DHT22;3292;48.944;9.240;2023-11-22T09:24:52;3.00;99.90
6518;DHT22;3292;48.944;9.240;2023-11-22T09:27:19;3.00;99.90
6518;DHT22;3292;48.944;9.240;2023-11-22T09:29:46;3.00;99.90
6518;DHT22;3292;48.944;9.240;2023-11-22T09:32:14;3.10;99.90
6518;DHT22;3292;48.944;9.240;2023-11-22T09:34:42;3.10;99.90
6518;DHT22;3292;48.944;9.240;2023-11-22T09:37:09;3.20;99.90
6518;DHT22;3292;48.944;9.240;2023-11-22T09:39:36;3.20;99.90
6518;DHT22;3292;48.944;9.240;2023-11-22T09:42:05;3.30;99.90
6518;DHT22;3292;48.944;9.240;2023-11-22T09:44:32;3.30;99.90
6518;DHT22;3292;48.944;9.240;2023-11-22T09:46:58;3.30;99.90
6518;DHT22;3292;48.944;9.240;2023-11-22T09:49:28;3.40;99.90
6518;DHT22;3292;48.944;9.240;2023-11-22T09:51:58;3.40;99.90
6518;DHT22;3292;48.944;9.240;2023-11-22T09:54:28;3.40;99.90
6518;DHT22;3292;48.944;9.240;2023-11-22T09:56:58;3.40;99.90
6518;DHT22;3292;48.944;9.240;2023-11-22T09:59:27;3.40;99.90
6518;DHT22;3292;48.944;9.240;2023-11-22T10:01:55;3.40;99.90
6518;DHT22;3292;48.944;9.240;2023-11-22T10:04:25;3.40;99.90
6518;DHT22;3292;48.944;9.240;2023-11-22T10:06:55;3.50;99.90
6518;DHT22;3292;48.944;9.240;2023-11-22T10:09:25;3.60;99.90
6518;DHT22;3292;48.944;9.240;2023-11-22T10:11:52;3.60;99.90
6518;DHT22;3292;48.944;9.240;2023-11-22T10:14:23;3.60;99.90
6518;DHT22;3292;48.944;9.240;2023-11-22T10:16:58;3.70;99.90
6518;DHT22;3292;48.944;9.240;2023-11-22T10:19:25;3.60;99.90
6518;DHT22;3292;48.944;9.240;2023-11-22T10:22:02;3.60;99.90
6518;DHT22;3292;48.944;9.240;2023-11-22T10:24:32;3.70;99.90
6518;DHT22;3292;48.944;9.240;2023-11-22T10:27:00;3.80;99.90
6518;DHT22;3292;48.944;9.240;2023-11-22T10:29:26;3.90;99.90
6518;DHT22;3292;48.944;9.240;2023-11-22T10:31:53;3.90;99.90
6518;DHT22;3292;48.944;9.240;2023-11-22T10:34:21;3.90;99.90
6518;DHT22;3292;48.944;9.240;2023-11-22T10:36:48;4.00;99.90
6518;DHT22;3292;48.944;9.240;2023-11-22T10:39:19;4.00;99.90
6518;DHT22;3292;48.944;9.240;2023-11-22T10:41:47;4.00;99.90
6518;DHT22;3292;48.944;9.240;2023-11-22T10:44:20;4.10;99.90
6518;DHT22;3292;48.944;9.240;2023-11-22T10:46:47;4.10;99.90
6518;DHT22;3292;48.944;9.240;2023-11-22T10:49:16;4.10;99.90
6518;DHT22;3292;48.944;9.240;2023-11-22T10:51:44;4.10;99.90
6518;DHT22;3292;48.944;9.240;2023-11-22T10:54:14;4.20;99.90
6518;DHT22;3292;48.944;9.240;2023-11-22T10:56:46;4.20;99.90
6518;DHT22;3292;48.944;9.240;2023-11-22T10:59:19;4.20;99.90
6518;DHT22;3292;48.944;9.240;2023-11-22T11:01:49;4.10;99.90
6518;DHT22;3292;48.944;9.240;2023-11-22T11:04:24;4.10;99.90
6518;DHT22;3292;48.944;9.240;2023-11-22T11:06:54;4.10;99.90
6518;DHT22;3292;48.944;9.240;2023-11-22T11:09:22;4.10;99.90
6518;DHT22;3292;48.944;9.240;2023-11-22T11:11:56;4.00;99.90
6518;DHT22;3292;48.944;9.240;2023-11-22T11:14:24;4.10;99.90
6518;DHT22;3292;48.944;9.240;2023-11-22T11:16:52;4.10;99.90
6518;DHT22;3292;48.944;9.240;2023-11-22T11:19:20;4.00;99.90
6518;DHT22;3292;48.944;9.240;2023-11-22T11:21:48;4.00;99.90
6518;DHT22;3292;48.944;9.240;2023-11-22T11:24:15;3.90;99.90
6518;DHT22;3292;48.944;9.240;2023-11-22T11:26:48;3.90;99.90
6518;DHT22;3292;48.944;9.240;2023-11-22T11:29:32;3.90;99.90
6518;DHT22;3292;48.944;9.240;2023-11-22T11:31:59;3.90;99.90
6518;DHT22;3292;48.944;9.240;2023-11-22T11:34:27;3.90;99.90
6518;DHT22;3292;48.944;9.240;2023-11-22T11:36:55;3.90;99.90
6518;DHT22;3292;48.944;9.240;2023-11-22T11:39:26;4.00;99.90
6518;DHT22;3292;48.944;9.240;2023-11-22T11:42:08;4.00;99.90
6518;DHT22;3292;48.944;9.240;2023-11-22T11:44:36;4.00;99.90
6518;DHT22;3292;48.944;9.240;2023-11-22T11:47:11;4.00;99.90
6518;DHT22;3292;48.944;9.240;2023-11-22T11:49:38;4.00;99.90
6518;DHT22;3292;48.944;9.240;2023-11-22T11:52:05;3.90;99.90
6518;DHT22;3292;48.944;9.240;2023-11-22T11:54:33;3.80;99.90
6518;DHT22;3292;48.944;9.240;2023-11-22T11:57:00;3.70;99.90
6518;DHT22;3292;48.944;9.240;2023-11-22T11:59:27;3.70;99.90
6518;DHT22;3292;48.944;9.240;2023-11-22T12:01:56;3.70;99.90
6518;DHT22;3292;48.944;9.240;2023-11-22T12:04:23;3.60;99.90
6518;DHT22;3292;48.944;9.240;2023-11-22T12:06:51;3.60;99.90
6518;DHT22;3292;48.944;9.240;2023-11-22T12:09:22;3.70;99.90
6518;DHT22;3292;48.944;9.240;2023-11-22T12:11:51;3.80;99.90
6518;DHT22;3292;48.944;9.240;2023-11-22T12:14:18;3.80;99.90
6518;DHT22;3292;48.944;9.240;2023-11-22T12:16:45;3.80;99.90
6518;DHT22;3292;48.944;9.240;2023-11-22T12:19:22;3.80;99.90
6518;DHT22;3292;48.944;9.240;2023-11-22T12:21:49;3.70;99.90
6518;DHT22;3292;48.944;9.240;2023-11-22T12:24:16;3.70;99.90
6518;DHT22;3292;48.944;9.240;2023-11-22T12:26:45;3.80;99.90
6518;DHT22;3292;48.944;9.240;2023-11-22T12:29:12;3.80;99.90
6518;DHT22;3292;48.944;9.240;2023-11-22T12:31:44;3.80;99.90
6518;DHT22;3292;48.944;9.240;2023-11-22T12:34:12;3.80;99.90
6518;DHT22;3292;48.944;9.240;2023-11-22T12:36:41;3.80;99.90
6518;DHT22;3292;48.944;9.240;2023-11-22T12:39:09;3.80;99.90
6518;DHT22;3292;48.944;9.240;2023-11-22T12:41:42;3.90;99.90
6518;DHT22;3292;48.944;9.240;2023-11-22T12:44:10;3.80;99.90
6518;DHT22;3292;48.944;9.240;2023-11-22T12:46:47;3.80;99.90
6518;DHT22;3292;48.944;9.240;2023-11-22T12:49:17;3.70;99.90
6518;DHT22;3292;48.944;9.240;2023-11-22T12:51:53;3.70;99.90
6518;DHT22;3292;48.944;9.240;2023-11-22T12:54:20;3.70;99.90
6518;DHT22;3292;48.944;9.240;2023-11-22T12:56:49;3.70;99.90
6518;DHT22;3292;48.944;9.240;2023-11-22T12:59:23;3.70;99.90
6518;DHT22;3292;48.944;9.240;2023-11-22T13:01:53;3.70;99.90
6518;DHT22;3292;48.944;9.240;2023-11-22T13:04:20;3.80;99.90
6518;DHT22;3292;48.944;9.240;2023-11-22T13:06:46;3.80;99.90
6518;DHT22;3292;48.944;9.240;2023-11-22T13:09:15;3.70;99.90
6518;DHT22;3292;48.944;9.240;2023-11-22T13:11:42;3.70;99.90
6518;DHT22;3292;48.944;9.240;2023-11-22T13:14:09;3.70;99.90
6518;DHT22;3292;48.944;9.240;2023-11-22T13:16:39;3.80;99.90
6518;DHT22;3292;48.944;9.240;2023-11-22T13:19:06;3.80;99.90
6518;DHT22;3292;48.944;9.240;2023-11-22T13:21:34;3.80;99.90
6518;DHT22;3292;48.944;9.240;2023-11-22T13:24:01;3.80;99.90
6518;DHT22;3292;48.944;9.240;2023-11-22T13:26:30;3.90;99.90
6518;DHT22;3292;48.944;9.240;2023-11-22T13:28:57;3.80;99.90
6518;DHT22;3292;48.944;9.240;2023-11-22T13:31:24;3.80;99.90
6518;DHT22;3292;48.944;9.240;2023-11-22T13:33:51;3.80;99.90
6518;DHT22;3292;48.944;9.240;2023-11-22T13:36:18;3.80;99.90
6518;DHT22;3292;48.944;9.240;2023-11-22T13:38:44;3.70;99.90
6518;DHT22;3292;48.944;9.240;2023-11-22T13:41:11;3.80;99.90
6518;DHT22;3292;48.944;9.240;2023-11-22T13:43:39;3.80;99.90
6518;DHT22;3292;48.944;9.240;2023-11-22T13:46:06;3.80;99.90
6518;DHT22;3292;48.944;9.240;2023-11-22T13:48:35;3.80;99.90
6518;DHT22;3292;48.944;9.240;2023-11-22T13:51:02;3.80;99.90
6518;DHT22;3292;48.944;9.240;2023-11-22T13:53:29;3.90;99.90
6518;DHT22;3292;48.944;9.240;2023-11-22T13:56:00;3.90;99.90
6518;DHT22;3292;48.944;9.240;2023-11-22T13:58:31;3.90;99.90
6518;DHT22;3292;48.944;9.240;2023-11-22T14:00:59;3.90;99.90
6518;DHT22;3292;48.944;9.240;2023-11-22T14:03:26;3.80;99.90
6518;DHT22;3292;48.944;9.240;2023-11-22T14:05:53;3.70;99.90
6518;DHT22;3292;48.944;9.240;2023-11-22T14:08:23;3.80;99.90
6518;DHT22;3292;48.944;9.240;2023-11-22T14:10:51;3.80;99.90
6518;DHT22;3292;48.944;9.240;2023-11-22T14:13:17;3.80;99.90
6518;DHT22;3292;48.944;9.240;2023-11-22T14:15:46;3.70;99.90
6518;DHT22;3292;48.944;9.240;2023-11-22T14:18:14;3.70;99.90
6518;DHT22;3292;48.944;9.240;2023-11-22T14:20:42;3.70;99.90
6518;DHT22;3292;48.944;9.240;2023-11-22T14:23:09;3.70;99.90
6518;DHT22;3292;48.944;9.240;2023-11-22T14:25:36;3.70;99.90
6518;DHT22;3292;48.944;9.240;2023-11-22T14:28:03;3.60;99.90
6518;DHT22;3292;48.944;9.240;2023-11-22T14:30:30;3.70;99.90
6518;DHT22;3292;48.944;9.240;2023-11-22T14:33:01;3.60;99.90
6518;DHT22;3292;48.944;9.240;2023-11-22T14:35:33;3.60;99.90
6518;DHT22;3292;48.944;9.240;2023-11-22T14:38:00;3.60;99.90
6518;DHT22;3292;48.944;9.240;2023-11-22T14:40:28;3.70;99.90
6518;DHT22;3292;48.944;9.240;2023-11-22T14:42:56;3.70;99.90
6518;DHT22;3292;48.944;9.240;2023-11-22T14:45:23;3.60;99.90
6518;DHT22;3292;48.944;9.240;2023-11-22T14:47:52;3.60;99.90
6518;DHT22;3292;48.944;9.240;2023-11-22T14:50:18;3.60;99.90
6518;DHT22;3292;48.944;9.240;2023-11-22T14:52:48;3.60;99.90
6518;DHT22;3292;48.944;9.240;2023-11-22T14:55:15;3.70;99.90
6518;DHT22;3292;48.944;9.240;2023-11-22T14:57:44;3.60;99.90
6518;DHT22;3292;48.944;9.240;2023-11-22T15:00:12;3.70;99.90
6518;DHT22;3292;48.944;9.240;2023-11-22T15:02:39;3.60;99.90
6518;DHT22;3292;48.944;9.240;2023-11-22T15:05:08;3.60;99.90
6518;DHT22;3292;48.944;9.240;2023-11-22T15:07:35;3.50;99.90
6518;DHT22;3292;48.944;9.240;2023-11-22T15:10:08;3.50;99.90
6518;DHT22;3292;48.944;9.240;2023-11-22T15:12:36;3.50;99.90
6518;DHT22;3292;48.944;9.240;2023-11-22T15:15:06;3.50;99.90
6518;DHT22;3292;48.944;9.240;2023-11-22T15:17:33;3.40;99.90
6518;DHT22;3292;48.944;9.240;2023-11-22T15:20:00;3.50;99.90
6518;DHT22;3292;48.944;9.240;2023-11-22T15:22:27;3.40;99.90
6518;DHT22;3292;48.944;9.240;2023-11-22T15:24:53;3.40;99.90
6518;DHT22;3292;48.944;9.240;2023-11-22T15:27:21;3.40;99.90
6518;DHT22;3292;48.944;9.240;2023-11-22T15:29:48;3.30;99.90
6518;DHT22;3292;48.944;9.240;2023-11-22T15:32:15;3.40;99.90
6518;DHT22;3292;48.944;9.240;2023-11-22T15:34:42;3.30;99.90
6518;DHT22;3292;48.944;9.240;2023-11-22T15:37:09;3.30;99.90
6518;DHT22;3292;48.944;9.240;2023-11-22T15:39:36;3.40;99.90
6518;DHT22;3292;48.944;9.240;2023-11-22T15:42:03;3.30;99.90
6518;DHT22;3292;48.944;9.240;2023-11-22T15:44:32;3.30;99.90
6518;DHT22;3292;48.944;9.240;2023-11-22T15:46:59;3.30;99.90
6518;DHT22;3292;48.944;9.240;2023-11-22T15:49:30;3.30;99.90
6518;DHT22;3292;48.944;9.240;2023-11-22T15:51:57;3.30;99.90
6518;DHT22;3292;48.944;9.240;2023-11-22T15:54:23;3.30;99.90
6518;DHT22;3292;48.944;9.240;2023-11-22T15:56:50;3.20;99.90
6518;DHT22;3292;48.944;9.240;2023-11-22T15:59:17;3.20;99.90
6518;DHT22;3292;48.944;9.240;2023-11-22T16:01:45;3.30;99.90
6518;DHT22;3292;48.944;9.240;2023-11-22T16:04:12;3.30;99.90
6518;DHT22;3292;48.944;9.240;2023-11-22T16:06:39;3.30;99.90
6518;DHT22;3292;48.944;9.240;2023-11-22T16:09:05;3.20;99.90
6518;DHT22;3292;48.944;9.240;2023-11-22T16:11:32;3.20;99.90
6518;DHT22;3292;48.944;9.240;2023-11-22T16:13:59;3.20;99.90
6518;DHT22;3292;48.944;9.240;2023-11-22T16:16:26;3.30;99.90
6518;DHT22;3292;48.944;9.240;2023-11-22T16:18:54;3.30;99.90
6518;DHT22;3292;48.944;9.240;2023-11-22T16:21:21;3.30;99.90